createdAt,value
2022-12-18T00:00:48.346Z,102188.00
2022-12-18T00:04:27.400Z,102193.97
2022-12-18T00:07:30.879Z,102207.97
2022-12-18T00:10:33.395Z,102200.44
2022-12-18T00:13:37.158Z,102206.47
2022-12-18T00:16:40.798Z,102212.34
2022-12-18T00:19:43.921Z,102219.44
2022-12-18T00:22:47.073Z,102222.13
2022-12-18T00:25:50.104Z,102224.16
2022-12-18T00:28:53.922Z,102226.66
2022-12-18T00:31:57.021Z,102231.50
2022-12-18T00:34:59.712Z,102221.75
2022-12-18T00:38:03.184Z,102231.31
2022-12-18T00:41:06.300Z,102252.47
2022-12-18T00:44:14.422Z,102252.63
2022-12-18T00:47:17.021Z,102252.84
2022-12-18T00:50:20.602Z,102256.72
2022-12-18T00:53:23.276Z,102255.44
2022-12-18T00:56:26.417Z,102266.63
2022-12-18T00:59:29.224Z,102273.75
2022-12-18T01:02:32.681Z,102273.75
2022-12-18T01:05:41.318Z,102277.13
2022-12-18T01:08:45.158Z,102279.56
2022-12-18T01:11:48.922Z,102286.97
2022-12-18T01:14:51.869Z,102279.97
2022-12-18T01:17:54.901Z,102290.59
2022-12-18T01:20:58.444Z,102284.38
2022-12-18T01:24:01.068Z,102291.00
2022-12-18T01:27:04.423Z,102296.72
2022-12-18T01:30:07.422Z,102301.50
2022-12-18T01:33:10.542Z,102313.22
2022-12-18T01:36:22.192Z,102314.25
2022-12-18T01:39:25.220Z,102320.78
2022-12-18T01:42:27.909Z,102329.84
2022-12-18T01:45:32.413Z,102327.03
2022-12-18T01:48:35.091Z,102332.72
2022-12-18T01:51:37.972Z,102331.19
2022-12-18T01:54:40.883Z,102331.31
2022-12-18T01:57:44.315Z,102341.31
2022-12-18T02:00:47.063Z,102346.66
2022-12-18T02:03:50.131Z,102352.22
2022-12-18T02:07:10.630Z,102360.03
2022-12-18T02:10:26.014Z,102361.88
2022-12-18T02:13:34.645Z,102368.09
2022-12-18T02:16:40.991Z,102376.50
2022-12-18T02:20:07.149Z,102373.81
2022-12-18T02:23:46.121Z,102378.59
2022-12-18T02:26:51.648Z,102375.09
2022-12-18T02:29:59.659Z,102385.38
2022-12-18T02:33:06.778Z,102386.00
2022-12-18T02:36:11.260Z,102399.00
2022-12-18T02:39:16.200Z,102399.66
2022-12-18T02:42:31.215Z,102399.78
2022-12-18T02:45:35.093Z,102397.03
2022-12-18T02:48:39.128Z,102395.34
2022-12-18T02:51:55.321Z,102414.06
2022-12-18T02:55:06.196Z,102417.09
2022-12-18T02:58:22.822Z,102428.13
2022-12-18T03:01:35.217Z,102421.50
2022-12-18T03:05:03.047Z,102434.34
2022-12-18T03:08:16.954Z,102443.41
2022-12-18T03:11:41.502Z,102453.84
2022-12-18T03:14:46.697Z,102456.16
2022-12-18T03:17:56.879Z,102462.66
2022-12-18T03:21:08.007Z,102449.94
2022-12-18T03:24:16.153Z,102455.91
2022-12-18T03:27:22.320Z,102453.03
2022-12-18T03:30:28.513Z,102472.03
2022-12-18T03:33:38.247Z,102477.34
2022-12-18T03:36:41.148Z,102483.72
2022-12-18T03:39:44.590Z,102474.88
2022-12-18T03:42:51.565Z,102481.13
2022-12-18T03:46:04.459Z,102490.50
2022-12-18T03:49:13.322Z,102492.56
2022-12-18T03:52:24.314Z,102504.38
2022-12-18T03:55:29.773Z,102498.81
2022-12-18T03:58:39.083Z,102503.25
2022-12-18T04:02:08.991Z,102503.59
2022-12-18T04:05:15.270Z,102502.19
2022-12-18T04:08:20.219Z,102516.50
2022-12-18T04:11:31.348Z,102518.84
2022-12-18T04:14:36.817Z,102529.25
2022-12-18T04:17:52.819Z,102518.66
2022-12-18T04:20:59.385Z,102534.94
2022-12-18T04:24:03.275Z,102543.38
2022-12-18T04:27:06.544Z,102538.81
2022-12-18T04:30:16.266Z,102540.25
2022-12-18T04:33:19.009Z,102547.53
2022-12-18T04:36:22.735Z,102547.53
2022-12-18T04:39:25.715Z,102541.25
2022-12-18T04:42:32.536Z,102559.50
2022-12-18T04:45:35.144Z,102570.16
2022-12-18T04:48:38.389Z,102571.13
2022-12-18T04:51:41.011Z,102568.53
2022-12-18T04:54:43.977Z,102563.50
2022-12-18T04:57:46.534Z,102571.66
2022-12-18T05:00:49.770Z,102573.97
2022-12-18T05:03:53.141Z,102578.41
2022-12-18T05:06:56.050Z,102582.69
2022-12-18T05:09:58.623Z,102580.31
2022-12-18T05:13:01.657Z,102590.28
2022-12-18T05:16:04.474Z,102598.44
2022-12-18T05:19:07.490Z,102602.28
2022-12-18T05:22:10.488Z,102606.44
2022-12-18T05:25:13.414Z,102612.66
2022-12-18T05:28:16.036Z,102614.56
2022-12-18T05:31:19.080Z,102627.47
2022-12-18T05:34:21.537Z,102639.41
2022-12-18T05:37:24.489Z,102644.91
2022-12-18T05:40:27.033Z,102652.69
2022-12-18T05:43:31.239Z,102652.00
2022-12-18T05:46:33.875Z,102657.97
2022-12-18T05:49:37.133Z,102651.09
2022-12-18T05:52:39.698Z,102652.91
2022-12-18T05:55:44.093Z,102650.47
2022-12-18T05:58:46.871Z,102654.59
2022-12-18T06:01:50.282Z,102664.28
2022-12-18T06:04:53.011Z,102666.84
2022-12-18T06:07:56.417Z,102667.38
2022-12-18T06:10:59.133Z,102661.66
2022-12-18T06:14:02.780Z,102668.59
2022-12-18T06:17:05.495Z,102670.81
2022-12-18T06:20:08.706Z,102682.06
2022-12-18T06:23:11.261Z,102679.97
2022-12-18T06:26:15.102Z,102684.09
2022-12-18T06:29:17.801Z,102691.53
2022-12-18T06:32:20.847Z,102701.56
2022-12-18T06:35:23.550Z,102705.81
2022-12-18T06:38:26.535Z,102718.59
2022-12-18T06:41:29.280Z,102711.78
2022-12-18T06:44:32.215Z,102714.84
2022-12-18T06:47:34.966Z,102723.03
2022-12-18T06:50:38.030Z,102728.84
2022-12-18T06:53:42.771Z,102731.34
2022-12-18T06:56:49.077Z,102731.56
2022-12-18T06:59:51.901Z,102745.59
2022-12-18T07:02:54.925Z,102743.22
2022-12-18T07:05:57.670Z,102749.81
2022-12-18T07:09:00.880Z,102753.63
2022-12-18T07:12:03.503Z,102758.28
2022-12-18T07:15:09.531Z,102744.53
2022-12-18T07:18:12.115Z,102768.53
2022-12-18T07:21:17.901Z,102771.41
2022-12-18T07:24:20.520Z,102781.72
2022-12-18T07:27:24.279Z,102782.41
2022-12-18T07:30:27.119Z,102785.69
2022-12-18T07:33:30.240Z,102798.19
2022-12-18T07:36:33.269Z,102804.59
2022-12-18T07:39:36.289Z,102803.38
2022-12-18T07:42:38.895Z,102801.31
2022-12-18T07:45:42.035Z,102808.56
2022-12-18T07:48:49.364Z,102813.81
2022-12-18T07:51:56.092Z,102817.66
2022-12-18T07:54:58.761Z,102817.53
2022-12-18T07:58:03.698Z,102832.00
2022-12-18T08:01:15.594Z,102836.22
2022-12-18T08:04:18.733Z,102834.69
2022-12-18T08:07:21.280Z,102838.34
2022-12-18T08:10:24.529Z,102845.63
2022-12-18T08:13:27.844Z,102852.94
2022-12-18T08:16:31.807Z,102853.50
2022-12-18T08:19:34.689Z,102856.28
2022-12-18T08:22:40.730Z,102854.03
2022-12-18T08:25:43.544Z,102858.44
2022-12-18T08:28:47.165Z,102868.66
2022-12-18T08:31:51.376Z,102870.06
2022-12-18T08:34:54.469Z,102875.16
2022-12-18T08:37:57.257Z,102881.13
2022-12-18T08:41:01.533Z,102880.28
2022-12-18T08:44:27.067Z,102877.19
2022-12-18T08:47:33.633Z,102898.00
2022-12-18T08:50:36.300Z,102893.50
2022-12-18T08:53:40.907Z,102889.91
2022-12-18T08:56:43.912Z,102896.41
2022-12-18T08:59:47.316Z,102899.16
2022-12-18T09:02:50.122Z,102908.28
2022-12-18T09:05:53.623Z,102909.38
2022-12-18T09:08:56.306Z,102907.59
2022-12-18T09:11:59.380Z,102902.50
2022-12-18T09:15:02.189Z,102908.75
2022-12-18T09:18:05.184Z,102910.00
2022-12-18T09:21:12.680Z,102908.31
2022-12-18T09:24:16.199Z,102909.66
2022-12-18T09:27:18.686Z,102919.19
2022-12-18T09:30:21.726Z,102922.28
2022-12-18T09:33:24.365Z,102921.06
2022-12-18T09:36:28.384Z,102925.19
2022-12-18T09:39:31.754Z,102915.56
2022-12-18T09:42:34.883Z,102922.59
2022-12-18T09:45:45.584Z,102920.66
2022-12-18T09:48:51.990Z,102923.25
2022-12-18T09:51:59.491Z,102924.94
2022-12-18T09:55:12.143Z,102921.97
2022-12-18T09:58:33.509Z,102920.56
2022-12-18T10:01:43.945Z,102931.38
2022-12-18T10:04:54.933Z,102939.53
2022-12-18T10:08:08.883Z,102949.72
2022-12-18T10:11:42.436Z,102948.19
2022-12-18T10:14:47.977Z,102942.13
2022-12-18T10:17:53.540Z,102942.81
2022-12-18T10:21:03.759Z,102938.19
2022-12-18T10:24:20.369Z,102931.16
2022-12-18T10:27:27.031Z,102932.06
2022-12-18T10:30:29.798Z,102923.75
2022-12-18T10:33:35.826Z,102926.34
2022-12-18T10:36:39.023Z,102934.28
2022-12-18T10:39:42.390Z,102921.66
2022-12-18T10:42:45.403Z,102914.13
2022-12-18T10:46:07.399Z,102923.63
2022-12-18T10:49:25.670Z,102932.28
2022-12-18T10:52:31.671Z,102930.25
2022-12-18T10:55:38.678Z,102926.34
2022-12-18T10:58:43.379Z,102920.59
2022-12-18T11:01:59.724Z,102928.16
2022-12-18T11:05:03.366Z,102930.94
2022-12-18T11:08:05.963Z,102922.31
2022-12-18T11:11:26.400Z,102924.81
2022-12-18T11:14:31.311Z,102922.63
2022-12-18T11:17:36.990Z,102926.28
2022-12-18T11:20:40.646Z,102922.09
2022-12-18T11:23:54.378Z,102931.88
2022-12-18T11:26:59.955Z,102939.44
2022-12-18T11:30:36.890Z,102933.69
2022-12-18T11:33:58.432Z,102922.88
2022-12-18T11:37:05.806Z,102921.19
2022-12-18T11:40:15.115Z,102930.97
2022-12-18T11:43:50.542Z,102935.25
2022-12-18T11:47:05.439Z,102937.00
2022-12-18T11:50:17.629Z,102933.59
2022-12-18T11:53:21.249Z,102931.88
2022-12-18T11:56:34.025Z,102931.38
2022-12-18T11:59:46.803Z,102940.84
2022-12-18T12:03:17.740Z,102934.72
2022-12-18T12:06:34.268Z,102930.41
2022-12-18T12:10:08.757Z,102937.59
2022-12-18T12:13:45.991Z,102934.59
2022-12-18T12:16:58.129Z,102933.97
2022-12-18T12:20:12.261Z,102942.56
2022-12-18T12:23:28.174Z,102947.91
2022-12-18T12:26:40.047Z,102958.09
2022-12-18T12:29:45.893Z,102962.94
2022-12-18T12:32:56.486Z,102967.72
2022-12-18T12:36:19.781Z,102967.63
2022-12-18T12:39:26.027Z,102978.00
2022-12-18T12:43:08.020Z,102975.31
2022-12-18T12:46:12.876Z,102973.47
2022-12-18T12:49:20.090Z,102983.63
2022-12-18T12:52:45.639Z,102987.28
2022-12-18T12:55:49.471Z,102992.09
2022-12-18T12:59:14.538Z,102996.50
2022-12-18T13:02:30.901Z,103007.59
2022-12-18T13:05:47.712Z,103014.69
2022-12-18T13:09:01.944Z,103011.84
2022-12-18T13:12:25.302Z,103012.50
2022-12-18T13:15:39.846Z,103013.00
2022-12-18T13:18:50.733Z,103009.53
2022-12-18T13:21:56.278Z,103022.94
2022-12-18T13:24:59.308Z,103031.69
2022-12-18T13:28:14.348Z,103037.41
2022-12-18T13:31:42.428Z,103024.09
2022-12-18T13:34:46.449Z,103031.84
2022-12-18T13:37:56.518Z,103037.31
2022-12-18T13:41:24.259Z,103048.22
2022-12-18T13:44:40.012Z,103039.50
2022-12-18T13:47:45.130Z,103043.09
2022-12-18T13:51:14.905Z,103039.63
2022-12-18T13:54:21.586Z,103049.13
2022-12-18T13:57:35.919Z,103059.81
2022-12-18T14:00:44.170Z,103054.34
2022-12-18T14:03:48.703Z,103048.84
2022-12-18T14:06:56.973Z,103052.31
2022-12-18T14:10:18.667Z,103058.84
2022-12-18T14:13:30.314Z,103061.41
2022-12-18T14:16:33.438Z,103059.16
2022-12-18T14:19:37.405Z,103061.75
2022-12-18T14:22:45.302Z,103057.09
2022-12-18T14:25:48.442Z,103054.66
2022-12-18T14:28:51.782Z,103062.31
2022-12-18T14:32:20.887Z,103064.06
2022-12-18T14:35:23.593Z,103070.47
2022-12-18T14:38:32.209Z,103069.38
2022-12-18T14:41:37.468Z,103063.50
2022-12-18T14:45:05.213Z,103084.81
2022-12-18T14:48:09.640Z,103084.34
2022-12-18T14:51:14.535Z,103098.22
2022-12-18T14:54:19.584Z,103088.78
2022-12-18T14:57:25.884Z,103087.38
2022-12-18T15:00:29.118Z,103096.72
2022-12-18T15:03:35.216Z,103101.63
2022-12-18T15:06:41.957Z,103110.28
2022-12-18T15:10:07.640Z,103111.53
2022-12-18T15:13:22.900Z,103111.41
2022-12-18T15:16:28.358Z,103100.56
2022-12-18T15:19:39.998Z,103106.66
2022-12-18T15:22:45.892Z,103102.78
2022-12-18T15:25:53.485Z,103113.59
2022-12-18T15:29:05.020Z,103121.63
2022-12-18T15:32:21.841Z,103134.19
2022-12-18T15:35:28.670Z,103144.91
2022-12-18T15:38:33.890Z,103135.75
2022-12-18T15:41:41.133Z,103132.38
2022-12-18T15:44:45.711Z,103138.56
2022-12-18T15:47:55.595Z,103137.84
2022-12-18T15:51:01.249Z,103142.56
2022-12-18T15:54:10.969Z,103139.28
2022-12-18T15:57:29.510Z,103139.41
2022-12-18T16:00:39.320Z,103145.28
2022-12-18T16:03:45.087Z,103152.47
2022-12-18T16:10:18.801Z,103153.44
2022-12-18T16:13:26.145Z,103146.78
2022-12-18T16:16:32.165Z,103130.75
2022-12-18T16:19:37.197Z,103132.03
2022-12-18T16:22:46.243Z,103122.84
2022-12-18T16:25:50.854Z,103132.38
2022-12-18T16:28:55.806Z,103137.59
2022-12-18T16:32:03.768Z,103142.75
2022-12-18T16:35:08.588Z,103136.03
2022-12-18T16:38:14.472Z,103141.81
2022-12-18T16:41:33.063Z,103149.31
2022-12-18T16:44:37.578Z,103149.28
2022-12-18T16:47:42.091Z,103148.22
2022-12-18T16:50:46.498Z,103173.28
2022-12-18T16:53:49.963Z,103163.00
2022-12-18T16:56:54.997Z,103173.03
2022-12-18T17:00:04.769Z,103173.97
2022-12-18T17:03:12.534Z,103168.47
2022-12-18T17:06:16.576Z,103168.19
2022-12-18T17:09:26.091Z,103182.88
2022-12-18T17:12:31.266Z,103177.94
2022-12-18T17:15:45.536Z,103170.31
2022-12-18T17:18:49.835Z,103162.97
2022-12-18T17:21:57.334Z,103169.72
2022-12-18T17:25:02.732Z,103172.75
2022-12-18T17:28:08.528Z,103182.06
2022-12-18T17:31:20.985Z,103171.06
2022-12-18T17:34:26.033Z,103166.34
2022-12-18T17:37:32.130Z,103159.97
2022-12-18T17:40:36.708Z,103168.50
2022-12-18T17:43:46.415Z,103178.28
2022-12-18T17:46:54.355Z,103177.84
2022-12-18T17:49:59.208Z,103179.06
2022-12-18T17:53:04.688Z,103180.13
2022-12-18T17:56:11.486Z,103175.72
2022-12-18T17:59:16.946Z,103183.31
2022-12-18T18:02:22.847Z,103179.22
2022-12-18T18:05:31.588Z,103180.59
2022-12-18T18:08:37.370Z,103182.44
2022-12-18T18:12:00.227Z,103182.56
2022-12-18T18:15:08.805Z,103175.56
2022-12-18T18:18:13.496Z,103183.81
2022-12-18T18:21:19.299Z,103190.53
2022-12-18T18:24:25.831Z,103193.13
2022-12-18T18:27:38.419Z,103184.56
2022-12-18T18:30:44.558Z,103181.38
2022-12-18T18:33:48.469Z,103185.66
2022-12-18T18:36:53.581Z,103167.91
2022-12-18T18:39:58.836Z,103175.84
2022-12-18T18:43:03.547Z,103168.84
2022-12-18T18:46:11.134Z,103182.09
2022-12-18T18:49:16.644Z,103175.72
2022-12-18T18:52:21.396Z,103181.50
2022-12-18T18:55:27.151Z,103176.16
2022-12-18T18:58:32.436Z,103181.50
2022-12-18T19:01:36.683Z,103203.06
2022-12-18T19:04:46.188Z,103187.31
2022-12-18T19:07:52.039Z,103181.50
2022-12-18T19:10:58.019Z,103178.94
2022-12-18T19:14:03.961Z,103176.03
2022-12-18T19:17:09.848Z,103178.59
2022-12-18T19:20:15.824Z,103184.13
2022-12-18T19:23:19.820Z,103181.97
2022-12-18T19:26:28.087Z,103189.31
2022-12-18T19:29:32.550Z,103197.84
2022-12-18T19:32:39.748Z,103209.16
2022-12-18T19:35:43.645Z,103205.47
2022-12-18T19:38:49.323Z,103206.09
2022-12-18T19:41:53.733Z,103194.66
2022-12-18T19:44:59.262Z,103191.75
2022-12-18T19:48:04.616Z,103193.28
2022-12-18T19:51:17.121Z,103198.47
2022-12-18T19:54:21.129Z,103199.38
2022-12-18T19:57:26.315Z,103198.75
2022-12-18T20:00:30.121Z,103199.16
2022-12-18T20:03:36.426Z,103188.31
2022-12-18T20:06:51.289Z,103206.94
2022-12-18T20:10:01.352Z,103201.94
2022-12-18T20:13:11.822Z,103203.44
2022-12-18T20:16:19.349Z,103203.00
2022-12-18T20:19:23.817Z,103210.63
2022-12-18T20:22:28.971Z,103211.53
2022-12-18T20:25:35.988Z,103215.97
2022-12-18T20:28:44.740Z,103227.41
2022-12-18T20:31:48.830Z,103225.25
2022-12-18T20:34:54.247Z,103230.44
2022-12-18T20:37:57.614Z,103238.66
2022-12-18T20:41:05.989Z,103251.44
2022-12-18T20:44:22.683Z,103251.13
2022-12-18T20:47:30.767Z,103252.22
2022-12-18T20:50:36.044Z,103251.31
2022-12-18T20:53:40.980Z,103255.41
2022-12-18T20:56:49.304Z,103242.53
2022-12-18T20:59:54.606Z,103255.63
2022-12-18T21:02:58.019Z,103250.78
2022-12-18T21:06:02.211Z,103259.91
2022-12-18T21:09:07.316Z,103256.03
2022-12-18T21:12:40.359Z,103252.97
2022-12-18T21:15:49.230Z,103242.72
2022-12-18T21:18:54.538Z,103233.59
2022-12-18T21:21:58.869Z,103234.94
2022-12-18T21:25:02.261Z,103225.19
2022-12-18T21:28:05.323Z,103230.34
2022-12-18T21:31:08.943Z,103230.94
2022-12-18T21:34:24.086Z,103226.53
2022-12-18T21:37:27.747Z,103204.72
2022-12-18T21:40:30.275Z,103212.50
2022-12-18T21:43:59.464Z,103204.09
2022-12-18T21:47:13.413Z,103195.72
2022-12-18T21:50:26.040Z,103191.28
2022-12-18T21:53:28.748Z,103179.66
2022-12-18T21:56:52.450Z,103176.16
2022-12-18T21:59:55.186Z,103168.06
2022-12-18T22:03:17.867Z,103160.09
2022-12-18T22:06:21.020Z,103150.94
2022-12-18T22:09:25.340Z,103148.81
2022-12-18T22:12:43.349Z,103154.31
2022-12-18T22:15:48.229Z,103145.00
2022-12-18T22:18:51.093Z,103154.31
2022-12-18T22:21:54.810Z,103155.81
2022-12-18T22:24:57.495Z,103144.84
2022-12-18T22:28:19.039Z,103145.66
2022-12-18T22:31:21.593Z,103142.28
2022-12-18T22:34:24.766Z,103143.81
2022-12-18T22:37:27.558Z,103149.47
2022-12-18T22:40:30.756Z,103155.88
2022-12-18T22:43:33.893Z,103137.88
2022-12-18T22:46:43.490Z,103148.25
2022-12-18T22:49:46.161Z,103129.66
2022-12-18T22:52:49.489Z,103142.63
2022-12-18T22:55:52.164Z,103136.69
2022-12-18T22:58:55.795Z,103138.19
2022-12-18T23:01:59.802Z,103141.84
2022-12-18T23:05:02.867Z,103133.31
2022-12-18T23:08:05.634Z,103130.91
2022-12-18T23:11:08.946Z,103124.91
2022-12-18T23:14:12.230Z,103131.00
2022-12-18T23:17:15.021Z,103133.00
2022-12-18T23:20:17.663Z,103121.59
2022-12-18T23:23:20.669Z,103135.13
2022-12-18T23:26:24.839Z,103123.13
2022-12-18T23:29:28.195Z,103127.41
2022-12-18T23:32:30.800Z,103122.38
2022-12-18T23:35:35.899Z,103122.66
2022-12-18T23:38:38.693Z,103125.75
2022-12-18T23:41:41.615Z,103117.50
2022-12-18T23:44:44.353Z,103116.00
2022-12-18T23:47:51.102Z,103116.75
2022-12-18T23:50:54.058Z,103107.31
2022-12-18T23:53:59.943Z,103118.41
2022-12-18T23:57:02.584Z,103119.19
